sensor_id;sensor_type;location;lat;lon;timestamp;P1;durP1;ratioP1;P2;durP2;ratioP2
24064;SDS011;12258;50.940;5.330;2022-08-25T00:00:43;6.60;;;3.42;;
24064;SDS011;12258;50.940;5.330;2022-08-25T00:03:11;5.97;;;3.05;;
24064;SDS011;12258;50.940;5.330;2022-08-25T00:05:37;3.70;;;2.83;;
24064;SDS011;12258;50.940;5.330;2022-08-25T00:08:03;6.28;;;3.25;;
24064;SDS011;12258;50.940;5.330;2022-08-25T00:10:30;4.43;;;3.38;;
24064;SDS011;12258;50.940;5.330;2022-08-25T00:13:00;3.83;;;2.70;;
24064;SDS011;12258;50.940;5.330;2022-08-25T00:15:26;5.93;;;3.70;;
24064;SDS011;12258;50.940;5.330;2022-08-25T00:17:53;6.00;;;3.45;;
24064;SDS011;12258;50.940;5.330;2022-08-25T00:20:19;5.20;;;3.03;;
24064;SDS011;12258;50.940;5.330;2022-08-25T00:22:44;4.15;;;3.22;;
24064;SDS011;12258;50.940;5.330;2022-08-25T00:25:10;4.25;;;3.10;;
24064;SDS011;12258;50.940;5.330;2022-08-25T00:27:36;4.68;;;3.13;;
24064;SDS011;12258;50.940;5.330;2022-08-25T00:30:02;5.05;;;3.35;;
24064;SDS011;12258;50.940;5.330;2022-08-25T00:32:28;5.00;;;3.30;;
24064;SDS011;12258;50.940;5.330;2022-08-25T00:34:54;4.45;;;3.30;;
24064;SDS011;12258;50.940;5.330;2022-08-25T00:37:19;4.10;;;3.58;;
24064;SDS011;12258;50.940;5.330;2022-08-25T00:39:45;3.83;;;3.15;;
24064;SDS011;12258;50.940;5.330;2022-08-25T00:42:10;5.22;;;3.30;;
24064;SDS011;12258;50.940;5.330;2022-08-25T00:44:37;8.57;;;3.55;;
24064;SDS011;12258;50.940;5.330;2022-08-25T00:47:04;3.92;;;3.20;;
24064;SDS011;12258;50.940;5.330;2022-08-25T00:52:04;4.88;;;3.65;;
24064;SDS011;12258;50.940;5.330;2022-08-25T00:54:37;4.45;;;3.30;;
24064;SDS011;12258;50.940;5.330;2022-08-25T00:57:06;6.37;;;3.30;;
24064;SDS011;12258;50.940;5.330;2022-08-25T00:59:34;7.53;;;3.47;;
24064;SDS011;12258;50.940;5.330;2022-08-25T01:02:01;7.03;;;3.15;;
24064;SDS011;12258;50.940;5.330;2022-08-25T01:04:28;4.28;;;3.40;;
24064;SDS011;12258;50.940;5.330;2022-08-25T01:06:53;7.25;;;3.38;;
24064;SDS011;12258;50.940;5.330;2022-08-25T01:09:19;3.55;;;3.22;;
24064;SDS011;12258;50.940;5.330;2022-08-25T01:11:46;4.97;;;3.38;;
24064;SDS011;12258;50.940;5.330;2022-08-25T01:14:12;4.20;;;3.30;;
24064;SDS011;12258;50.940;5.330;2022-08-25T01:16:40;7.10;;;3.50;;
24064;SDS011;12258;50.940;5.330;2022-08-25T01:19:08;5.03;;;3.70;;
24064;SDS011;12258;50.940;5.330;2022-08-25T01:21:37;4.70;;;3.75;;
24064;SDS011;12258;50.940;5.330;2022-08-25T01:24:05;5.13;;;3.35;;
24064;SDS011;12258;50.940;5.330;2022-08-25T01:26:32;5.57;;;4.22;;
24064;SDS011;12258;50.940;5.330;2022-08-25T01:28:59;7.85;;;3.58;;
24064;SDS011;12258;50.940;5.330;2022-08-25T01:31:47;6.22;;;3.72;;
24064;SDS011;12258;50.940;5.330;2022-08-25T01:34:14;9.05;;;3.70;;
24064;SDS011;12258;50.940;5.330;2022-08-25T01:36:42;8.10;;;3.95;;
24064;SDS011;12258;50.940;5.330;2022-08-25T01:39:08;6.68;;;3.97;;
24064;SDS011;12258;50.940;5.330;2022-08-25T01:41:39;8.13;;;3.78;;
24064;SDS011;12258;50.940;5.330;2022-08-25T01:44:23;9.57;;;3.90;;
24064;SDS011;12258;50.940;5.330;2022-08-25T01:46:50;6.00;;;4.38;;
24064;SDS011;12258;50.940;5.330;2022-08-25T01:49:15;6.13;;;3.58;;
24064;SDS011;12258;50.940;5.330;2022-08-25T01:51:42;7.45;;;4.13;;
24064;SDS011;12258;50.940;5.330;2022-08-25T01:54:10;4.10;;;3.70;;
24064;SDS011;12258;50.940;5.330;2022-08-25T01:56:36;7.28;;;4.22;;
24064;SDS011;12258;50.940;5.330;2022-08-25T01:59:02;8.05;;;4.03;;
24064;SDS011;12258;50.940;5.330;2022-08-25T02:01:27;6.38;;;4.30;;
24064;SDS011;12258;50.940;5.330;2022-08-25T02:03:53;5.65;;;3.78;;
24064;SDS011;12258;50.940;5.330;2022-08-25T02:06:24;7.43;;;4.00;;
24064;SDS011;12258;50.940;5.330;2022-08-25T02:09:00;6.93;;;4.10;;
24064;SDS011;12258;50.940;5.330;2022-08-25T02:11:29;9.07;;;4.35;;
24064;SDS011;12258;50.940;5.330;2022-08-25T02:13:55;6.18;;;4.35;;
24064;SDS011;12258;50.940;5.330;2022-08-25T02:16:24;6.72;;;4.53;;
24064;SDS011;12258;50.940;5.330;2022-08-25T02:18:55;5.70;;;4.28;;
24064;SDS011;12258;50.940;5.330;2022-08-25T02:21:21;9.50;;;5.25;;
24064;SDS011;12258;50.940;5.330;2022-08-25T02:23:47;7.97;;;4.55;;
24064;SDS011;12258;50.940;5.330;2022-08-25T02:26:13;8.02;;;4.60;;
24064;SDS011;12258;50.940;5.330;2022-08-25T02:28:43;4.85;;;4.20;;
24064;SDS011;12258;50.940;5.330;2022-08-25T02:31:10;5.55;;;4.32;;
24064;SDS011;12258;50.940;5.330;2022-08-25T02:33:36;7.55;;;4.18;;
24064;SDS011;12258;50.940;5.330;2022-08-25T02:36:02;4.55;;;4.15;;
24064;SDS011;12258;50.940;5.330;2022-08-25T02:38:28;9.55;;;4.53;;
24064;SDS011;12258;50.940;5.330;2022-08-25T02:40:57;6.22;;;4.35;;
24064;SDS011;12258;50.940;5.330;2022-08-25T02:43:25;5.45;;;4.03;;
24064;SDS011;12258;50.940;5.330;2022-08-25T02:45:52;4.78;;;4.28;;
24064;SDS011;12258;50.940;5.330;2022-08-25T02:48:19;6.18;;;4.43;;
24064;SDS011;12258;50.940;5.330;2022-08-25T02:50:49;5.22;;;4.13;;
24064;SDS011;12258;50.940;5.330;2022-08-25T02:53:16;6.05;;;4.35;;
24064;SDS011;12258;50.940;5.330;2022-08-25T02:55:43;6.75;;;4.10;;
24064;SDS011;12258;50.940;5.330;2022-08-25T02:58:08;8.00;;;3.95;;
24064;SDS011;12258;50.940;5.330;2022-08-25T03:00:34;4.88;;;4.00;;
24064;SDS011;12258;50.940;5.330;2022-08-25T03:03:00;7.35;;;4.00;;
24064;SDS011;12258;50.940;5.330;2022-08-25T03:05:25;8.73;;;4.28;;
24064;SDS011;12258;50.940;5.330;2022-08-25T03:07:51;9.50;;;4.72;;
24064;SDS011;12258;50.940;5.330;2022-08-25T03:10:17;5.35;;;3.83;;
24064;SDS011;12258;50.940;5.330;2022-08-25T03:12:45;7.93;;;5.05;;
24064;SDS011;12258;50.940;5.330;2022-08-25T03:15:11;8.18;;;4.18;;
24064;SDS011;12258;50.940;5.330;2022-08-25T03:17:40;7.22;;;4.35;;
24064;SDS011;12258;50.940;5.330;2022-08-25T03:20:06;13.27;;;4.75;;
24064;SDS011;12258;50.940;5.330;2022-08-25T03:22:31;10.52;;;4.43;;
24064;SDS011;12258;50.940;5.330;2022-08-25T03:24:57;6.07;;;4.20;;
24064;SDS011;12258;50.940;5.330;2022-08-25T03:27:42;11.02;;;4.90;;
24064;SDS011;12258;50.940;5.330;2022-08-25T03:30:08;11.70;;;4.95;;
24064;SDS011;12258;50.940;5.330;2022-08-25T03:32:35;8.73;;;5.13;;
24064;SDS011;12258;50.940;5.330;2022-08-25T03:35:00;7.47;;;4.63;;
24064;SDS011;12258;50.940;5.330;2022-08-25T03:37:26;6.00;;;4.40;;
24064;SDS011;12258;50.940;5.330;2022-08-25T03:39:51;10.20;;;5.22;;
24064;SDS011;12258;50.940;5.330;2022-08-25T03:42:17;7.88;;;5.13;;
24064;SDS011;12258;50.940;5.330;2022-08-25T03:44:43;9.18;;;5.53;;
24064;SDS011;12258;50.940;5.330;2022-08-25T03:47:09;6.05;;;4.60;;
24064;SDS011;12258;50.940;5.330;2022-08-25T03:49:34;12.43;;;4.68;;
24064;SDS011;12258;50.940;5.330;2022-08-25T03:52:00;6.72;;;4.70;;
24064;SDS011;12258;50.940;5.330;2022-08-25T03:54:26;10.00;;;5.03;;
24064;SDS011;12258;50.940;5.330;2022-08-25T03:56:51;6.57;;;4.55;;
24064;SDS011;12258;50.940;5.330;2022-08-25T03:59:17;10.43;;;5.40;;
24064;SDS011;12258;50.940;5.330;2022-08-25T04:01:43;10.82;;;5.07;;
24064;SDS011;12258;50.940;5.330;2022-08-25T04:04:11;9.93;;;5.00;;
24064;SDS011;12258;50.940;5.330;2022-08-25T04:06:40;8.07;;;5.75;;
24064;SDS011;12258;50.940;5.330;2022-08-25T04:09:07;8.15;;;4.88;;
24064;SDS011;12258;50.940;5.330;2022-08-25T04:11:34;6.30;;;4.95;;
24064;SDS011;12258;50.940;5.330;2022-08-25T04:14:00;16.90;;;4.60;;
24064;SDS011;12258;50.940;5.330;2022-08-25T04:16:27;10.73;;;5.25;;
24064;SDS011;12258;50.940;5.330;2022-08-25T04:18:55;8.70;;;4.95;;
24064;SDS011;12258;50.940;5.330;2022-08-25T04:21:22;8.90;;;5.25;;
24064;SDS011;12258;50.940;5.330;2022-08-25T04:23:49;7.80;;;4.70;;
24064;SDS011;12258;50.940;5.330;2022-08-25T04:26:17;11.50;;;4.97;;
24064;SDS011;12258;50.940;5.330;2022-08-25T04:28:48;6.95;;;5.10;;
24064;SDS011;12258;50.940;5.330;2022-08-25T04:31:14;7.60;;;5.35;;
24064;SDS011;12258;50.940;5.330;2022-08-25T04:33:41;15.45;;;5.50;;
24064;SDS011;12258;50.940;5.330;2022-08-25T04:36:07;13.52;;;5.07;;
24064;SDS011;12258;50.940;5.330;2022-08-25T04:38:35;7.55;;;5.00;;
24064;SDS011;12258;50.940;5.330;2022-08-25T04:41:03;8.98;;;5.00;;
24064;SDS011;12258;50.940;5.330;2022-08-25T04:43:31;7.95;;;4.55;;
24064;SDS011;12258;50.940;5.330;2022-08-25T04:45:58;9.85;;;5.30;;
24064;SDS011;12258;50.940;5.330;2022-08-25T04:48:24;8.55;;;5.07;;
24064;SDS011;12258;50.940;5.330;2022-08-25T04:50:50;9.13;;;5.30;;
24064;SDS011;12258;50.940;5.330;2022-08-25T04:53:16;10.77;;;4.78;;
24064;SDS011;12258;50.940;5.330;2022-08-25T04:55:43;5.43;;;4.13;;
24064;SDS011;12258;50.940;5.330;2022-08-25T04:58:10;10.00;;;4.85;;
24064;SDS011;12258;50.940;5.330;2022-08-25T05:00:38;9.82;;;4.53;;
24064;SDS011;12258;50.940;5.330;2022-08-25T05:03:04;10.57;;;5.18;;
24064;SDS011;12258;50.940;5.330;2022-08-25T05:05:30;11.50;;;5.57;;
24064;SDS011;12258;50.940;5.330;2022-08-25T05:07:57;12.55;;;5.18;;
24064;SDS011;12258;50.940;5.330;2022-08-25T05:10:23;12.60;;;5.07;;
24064;SDS011;12258;50.940;5.330;2022-08-25T05:12:49;8.18;;;5.03;;
24064;SDS011;12258;50.940;5.330;2022-08-25T05:15:14;11.95;;;6.15;;
24064;SDS011;12258;50.940;5.330;2022-08-25T05:17:58;9.70;;;5.38;;
24064;SDS011;12258;50.940;5.330;2022-08-25T05:20:23;9.73;;;5.20;;
24064;SDS011;12258;50.940;5.330;2022-08-25T05:22:49;11.40;;;5.10;;
24064;SDS011;12258;50.940;5.330;2022-08-25T05:25:15;12.02;;;5.78;;
24064;SDS011;12258;50.940;5.330;2022-08-25T05:27:41;9.68;;;4.50;;
24064;SDS011;12258;50.940;5.330;2022-08-25T05:30:07;11.60;;;5.03;;
24064;SDS011;12258;50.940;5.330;2022-08-25T05:32:34;14.73;;;5.88;;
24064;SDS011;12258;50.940;5.330;2022-08-25T05:35:00;16.15;;;6.00;;
24064;SDS011;12258;50.940;5.330;2022-08-25T05:37:26;9.02;;;5.55;;
24064;SDS011;12258;50.940;5.330;2022-08-25T05:39:52;9.25;;;4.50;;
24064;SDS011;12258;50.940;5.330;2022-08-25T05:42:17;12.88;;;4.97;;
24064;SDS011;12258;50.940;5.330;2022-08-25T05:44:43;15.38;;;5.88;;
24064;SDS011;12258;50.940;5.330;2022-08-25T05:47:08;12.98;;;5.55;;
24064;SDS011;12258;50.940;5.330;2022-08-25T05:49:34;9.13;;;5.18;;
24064;SDS011;12258;50.940;5.330;2022-08-25T05:51:59;12.88;;;5.05;;
24064;SDS011;12258;50.940;5.330;2022-08-25T05:54:25;9.55;;;5.20;;
24064;SDS011;12258;50.940;5.330;2022-08-25T05:56:50;8.73;;;4.50;;
24064;SDS011;12258;50.940;5.330;2022-08-25T05:59:16;8.63;;;5.40;;
24064;SDS011;12258;50.940;5.330;2022-08-25T06:01:42;10.57;;;5.13;;
24064;SDS011;12258;50.940;5.330;2022-08-25T06:04:26;8.88;;;4.70;;
24064;SDS011;12258;50.940;5.330;2022-08-25T06:06:51;9.23;;;4.85;;
24064;SDS011;12258;50.940;5.330;2022-08-25T06:09:19;10.45;;;5.10;;
24064;SDS011;12258;50.940;5.330;2022-08-25T06:11:46;9.52;;;5.07;;
24064;SDS011;12258;50.940;5.330;2022-08-25T06:14:11;21.73;;;5.15;;
24064;SDS011;12258;50.940;5.330;2022-08-25T06:16:37;11.18;;;5.30;;
24064;SDS011;12258;50.940;5.330;2022-08-25T06:19:04;10.70;;;4.50;;
24064;SDS011;12258;50.940;5.330;2022-08-25T06:21:30;13.88;;;4.88;;
24064;SDS011;12258;50.940;5.330;2022-08-25T06:23:56;14.10;;;5.30;;
24064;SDS011;12258;50.940;5.330;2022-08-25T06:26:21;13.25;;;4.38;;
24064;SDS011;12258;50.940;5.330;2022-08-25T06:28:51;11.52;;;5.20;;
24064;SDS011;12258;50.940;5.330;2022-08-25T06:31:17;12.10;;;4.80;;
24064;SDS011;12258;50.940;5.330;2022-08-25T06:33:43;13.85;;;5.60;;
24064;SDS011;12258;50.940;5.330;2022-08-25T06:36:09;10.75;;;4.28;;
24064;SDS011;12258;50.940;5.330;2022-08-25T06:38:35;12.60;;;4.97;;
24064;SDS011;12258;50.940;5.330;2022-08-25T06:41:04;16.95;;;5.55;;
24064;SDS011;12258;50.940;5.330;2022-08-25T06:43:31;7.38;;;4.80;;
24064;SDS011;12258;50.940;5.330;2022-08-25T06:45:57;12.98;;;4.20;;
24064;SDS011;12258;50.940;5.330;2022-08-25T06:48:23;12.35;;;4.55;;
24064;SDS011;12258;50.940;5.330;2022-08-25T06:50:49;9.80;;;4.57;;
24064;SDS011;12258;50.940;5.330;2022-08-25T06:53:14;8.90;;;4.10;;
24064;SDS011;12258;50.940;5.330;2022-08-25T06:55:40;9.10;;;4.32;;
24064;SDS011;12258;50.940;5.330;2022-08-25T06:58:06;14.95;;;4.25;;
24064;SDS011;12258;50.940;5.330;2022-08-25T07:00:33;11.65;;;4.35;;
24064;SDS011;12258;50.940;5.330;2022-08-25T07:02:59;9.02;;;4.18;;
24064;SDS011;12258;50.940;5.330;2022-08-25T07:05:25;9.60;;;4.28;;
24064;SDS011;12258;50.940;5.330;2022-08-25T07:07:51;11.93;;;5.10;;
24064;SDS011;12258;50.940;5.330;2022-08-25T07:10:16;10.73;;;4.25;;
24064;SDS011;12258;50.940;5.330;2022-08-25T07:12:42;6.65;;;3.90;;
24064;SDS011;12258;50.940;5.330;2022-08-25T07:15:08;12.48;;;4.70;;
24064;SDS011;12258;50.940;5.330;2022-08-25T07:17:33;5.15;;;3.25;;
24064;SDS011;12258;50.940;5.330;2022-08-25T07:19:59;16.65;;;4.32;;
24064;SDS011;12258;50.940;5.330;2022-08-25T07:22:24;10.50;;;4.10;;
24064;SDS011;12258;50.940;5.330;2022-08-25T07:24:49;13.98;;;3.80;;
24064;SDS011;12258;50.940;5.330;2022-08-25T07:27:15;14.45;;;4.53;;
24064;SDS011;12258;50.940;5.330;2022-08-25T07:29:40;10.40;;;3.55;;
24064;SDS011;12258;50.940;5.330;2022-08-25T07:32:06;12.45;;;4.55;;
24064;SDS011;12258;50.940;5.330;2022-08-25T07:34:31;9.20;;;3.83;;
24064;SDS011;12258;50.940;5.330;2022-08-25T07:37:16;10.63;;;3.90;;
24064;SDS011;12258;50.940;5.330;2022-08-25T07:39:43;10.90;;;4.18;;
24064;SDS011;12258;50.940;5.330;2022-08-25T07:42:11;8.73;;;3.65;;
24064;SDS011;12258;50.940;5.330;2022-08-25T07:44:37;8.88;;;3.70;;
24064;SDS011;12258;50.940;5.330;2022-08-25T07:47:02;7.65;;;3.28;;
24064;SDS011;12258;50.940;5.330;2022-08-25T07:49:28;7.55;;;3.50;;
24064;SDS011;12258;50.940;5.330;2022-08-25T07:51:54;7.03;;;3.38;;
24064;SDS011;12258;50.940;5.330;2022-08-25T07:54:20;9.55;;;3.25;;
24064;SDS011;12258;50.940;5.330;2022-08-25T07:56:46;8.50;;;3.42;;
24064;SDS011;12258;50.940;5.330;2022-08-25T07:59:12;9.10;;;3.47;;
24064;SDS011;12258;50.940;5.330;2022-08-25T08:01:37;9.40;;;3.30;;
24064;SDS011;12258;50.940;5.330;2022-08-25T08:04:04;9.20;;;3.28;;
24064;SDS011;12258;50.940;5.330;2022-08-25T08:06:30;7.40;;;3.22;;
24064;SDS011;12258;50.940;5.330;2022-08-25T08:08:55;10.38;;;3.67;;
24064;SDS011;12258;50.940;5.330;2022-08-25T08:13:52;12.25;;;3.55;;
24064;SDS011;12258;50.940;5.330;2022-08-25T08:16:19;8.25;;;3.60;;
24064;SDS011;12258;50.940;5.330;2022-08-25T08:18:47;10.13;;;3.30;;
24064;SDS011;12258;50.940;5.330;2022-08-25T08:21:17;10.55;;;3.45;;
24064;SDS011;12258;50.940;5.330;2022-08-25T08:23:49;9.88;;;3.00;;
24064;SDS011;12258;50.940;5.330;2022-08-25T08:26:16;10.18;;;3.40;;
24064;SDS011;12258;50.940;5.330;2022-08-25T08:28:42;8.32;;;3.00;;
24064;SDS011;12258;50.940;5.330;2022-08-25T08:31:09;10.23;;;3.25;;
24064;SDS011;12258;50.940;5.330;2022-08-25T08:33:35;7.63;;;2.80;;
24064;SDS011;12258;50.940;5.330;2022-08-25T08:36:08;4.97;;;2.90;;
24064;SDS011;12258;50.940;5.330;2022-08-25T08:38:36;6.28;;;2.05;;
24064;SDS011;12258;50.940;5.330;2022-08-25T08:41:52;8.60;;;2.67;;
24064;SDS011;12258;50.940;5.330;2022-08-25T08:47:10;7.57;;;2.60;;
24064;SDS011;12258;50.940;5.330;2022-08-25T08:50:02;6.97;;;2.75;;
24064;SDS011;12258;50.940;5.330;2022-08-25T08:55:06;8.07;;;2.35;;
24064;SDS011;12258;50.940;5.330;2022-08-25T08:57:42;8.85;;;2.60;;
24064;SDS011;12258;50.940;5.330;2022-08-25T09:00:11;6.28;;;2.08;;
24064;SDS011;12258;50.940;5.330;2022-08-25T09:02:41;4.05;;;2.20;;
24064;SDS011;12258;50.940;5.330;2022-08-25T09:05:15;8.43;;;2.85;;
24064;SDS011;12258;50.940;5.330;2022-08-25T09:07:45;8.40;;;2.53;;
24064;SDS011;12258;50.940;5.330;2022-08-25T09:10:15;8.15;;;2.58;;
24064;SDS011;12258;50.940;5.330;2022-08-25T09:12:53;2.70;;;2.05;;
24064;SDS011;12258;50.940;5.330;2022-08-25T09:29:59;4.13;;;2.10;;
24064;SDS011;12258;50.940;5.330;2022-08-25T09:32:27;5.20;;;1.80;;
24064;SDS011;12258;50.940;5.330;2022-08-25T09:34:54;5.63;;;1.90;;
24064;SDS011;12258;50.940;5.330;2022-08-25T09:37:20;3.65;;;2.20;;
24064;SDS011;12258;50.940;5.330;2022-08-25T09:39:48;3.58;;;1.83;;
24064;SDS011;12258;50.940;5.330;2022-08-25T09:42:13;7.30;;;2.10;;
24064;SDS011;12258;50.940;5.330;2022-08-25T09:44:43;6.95;;;2.35;;
24064;SDS011;12258;50.940;5.330;2022-08-25T09:49:45;4.82;;;2.05;;
24064;SDS011;12258;50.940;5.330;2022-08-25T09:54:59;9.13;;;2.78;;
24064;SDS011;12258;50.940;5.330;2022-08-25T10:02:42;4.93;;;2.00;;
24064;SDS011;12258;50.940;5.330;2022-08-25T10:05:27;2.60;;;2.03;;
24064;SDS011;12258;50.940;5.330;2022-08-25T10:07:57;5.68;;;2.00;;
24064;SDS011;12258;50.940;5.330;2022-08-25T10:10:27;6.93;;;2.47;;
24064;SDS011;12258;50.940;5.330;2022-08-25T10:12:56;5.63;;;1.88;;
24064;SDS011;12258;50.940;5.330;2022-08-25T10:17:56;6.18;;;2.38;;
24064;SDS011;12258;50.940;5.330;2022-08-25T10:20:44;8.63;;;2.65;;
24064;SDS011;12258;50.940;5.330;2022-08-25T10:23:26;5.43;;;2.40;;
24064;SDS011;12258;50.940;5.330;2022-08-25T10:25:52;4.32;;;1.98;;
24064;SDS011;12258;50.940;5.330;2022-08-25T10:30:54;1.95;;;1.75;;
24064;SDS011;12258;50.940;5.330;2022-08-25T10:36:20;3.10;;;1.90;;
24064;SDS011;12258;50.940;5.330;2022-08-25T10:38:57;4.78;;;1.88;;
24064;SDS011;12258;50.940;5.330;2022-08-25T10:44:36;3.42;;;1.88;;
24064;SDS011;12258;50.940;5.330;2022-08-25T10:47:52;5.03;;;1.60;;
24064;SDS011;12258;50.940;5.330;2022-08-25T10:50:28;4.47;;;2.10;;
24064;SDS011;12258;50.940;5.330;2022-08-25T10:56:40;4.57;;;1.85;;
24064;SDS011;12258;50.940;5.330;2022-08-25T11:04:37;4.88;;;2.00;;
24064;SDS011;12258;50.940;5.330;2022-08-25T11:07:10;6.47;;;2.00;;
24064;SDS011;12258;50.940;5.330;2022-08-25T11:09:45;5.05;;;2.03;;
24064;SDS011;12258;50.940;5.330;2022-08-25T11:12:21;3.08;;;1.90;;
24064;SDS011;12258;50.940;5.330;2022-08-25T11:14:56;7.07;;;1.70;;
24064;SDS011;12258;50.940;5.330;2022-08-25T11:17:37;2.35;;;1.65;;
24064;SDS011;12258;50.940;5.330;2022-08-25T11:20:13;3.28;;;2.22;;
24064;SDS011;12258;50.940;5.330;2022-08-25T11:22:45;7.93;;;2.15;;
24064;SDS011;12258;50.940;5.330;2022-08-25T11:25:23;5.93;;;2.22;;
24064;SDS011;12258;50.940;5.330;2022-08-25T11:30:25;10.95;;;2.65;;
24064;SDS011;12258;50.940;5.330;2022-08-25T11:32:51;4.95;;;1.95;;
24064;SDS011;12258;50.940;5.330;2022-08-25T11:35:28;9.32;;;2.47;;
24064;SDS011;12258;50.940;5.330;2022-08-25T11:43:24;9.80;;;2.72;;
24064;SDS011;12258;50.940;5.330;2022-08-25T11:46:10;5.93;;;2.40;;
24064;SDS011;12258;50.940;5.330;2022-08-25T11:48:52;3.42;;;1.80;;
24064;SDS011;12258;50.940;5.330;2022-08-25T11:51:28;4.70;;;2.13;;
24064;SDS011;12258;50.940;5.330;2022-08-25T11:54:04;6.13;;;1.80;;
24064;SDS011;12258;50.940;5.330;2022-08-25T11:56:40;5.07;;;2.15;;
24064;SDS011;12258;50.940;5.330;2022-08-25T11:59:06;4.65;;;1.77;;
24064;SDS011;12258;50.940;5.330;2022-08-25T12:17:42;4.43;;;1.98;;
24064;SDS011;12258;50.940;5.330;2022-08-25T12:20:08;5.05;;;2.08;;
24064;SDS011;12258;50.940;5.330;2022-08-25T12:25:02;6.53;;;2.40;;
24064;SDS011;12258;50.940;5.330;2022-08-25T12:28:21;4.07;;;2.00;;
24064;SDS011;12258;50.940;5.330;2022-08-25T12:31:00;4.47;;;3.17;;
24064;SDS011;12258;50.940;5.330;2022-08-25T12:33:46;12.15;;;2.55;;
24064;SDS011;12258;50.940;5.330;2022-08-25T12:36:27;5.82;;;2.33;;
24064;SDS011;12258;50.940;5.330;2022-08-25T12:39:06;3.17;;;2.77;;
24064;SDS011;12258;50.940;5.330;2022-08-25T12:41:51;3.50;;;2.47;;
24064;SDS011;12258;50.940;5.330;2022-08-25T12:44:34;8.60;;;2.45;;
24064;SDS011;12258;50.940;5.330;2022-08-25T12:49:48;9.65;;;2.80;;
24064;SDS011;12258;50.940;5.330;2022-08-25T12:52:15;4.30;;;2.40;;
24064;SDS011;12258;50.940;5.330;2022-08-25T12:54:48;6.35;;;2.67;;
24064;SDS011;12258;50.940;5.330;2022-08-25T12:57:32;4.15;;;2.20;;
24064;SDS011;12258;50.940;5.330;2022-08-25T13:00:09;6.80;;;2.47;;
24064;SDS011;12258;50.940;5.330;2022-08-25T13:11:55;6.35;;;2.83;;
24064;SDS011;12258;50.940;5.330;2022-08-25T13:17:02;3.45;;;2.45;;
24064;SDS011;12258;50.940;5.330;2022-08-25T13:19:28;4.28;;;2.83;;
24064;SDS011;12258;50.940;5.330;2022-08-25T13:21:54;8.20;;;2.35;;
24064;SDS011;12258;50.940;5.330;2022-08-25T13:24:23;9.68;;;2.70;;
24064;SDS011;12258;50.940;5.330;2022-08-25T13:26:52;7.53;;;3.05;;
24064;SDS011;12258;50.940;5.330;2022-08-25T13:29:21;4.13;;;2.40;;
24064;SDS011;12258;50.940;5.330;2022-08-25T13:31:54;6.25;;;2.25;;
24064;SDS011;12258;50.940;5.330;2022-08-25T13:34:32;3.00;;;2.20;;
24064;SDS011;12258;50.940;5.330;2022-08-25T13:37:09;6.88;;;2.60;;
24064;SDS011;12258;50.940;5.330;2022-08-25T13:40:06;4.85;;;2.50;;
24064;SDS011;12258;50.940;5.330;2022-08-25T13:42:34;3.33;;;2.40;;
24064;SDS011;12258;50.940;5.330;2022-08-25T13:45:01;4.13;;;2.42;;
24064;SDS011;12258;50.940;5.330;2022-08-25T13:47:34;3.78;;;2.53;;
24064;SDS011;12258;50.940;5.330;2022-08-25T13:52:51;8.30;;;3.00;;
24064;SDS011;12258;50.940;5.330;2022-08-25T13:58:03;5.32;;;2.63;;
24064;SDS011;12258;50.940;5.330;2022-08-25T14:00:33;5.32;;;2.40;;
24064;SDS011;12258;50.940;5.330;2022-08-25T14:03:07;5.07;;;2.60;;
24064;SDS011;12258;50.940;5.330;2022-08-25T14:06:08;3.83;;;2.83;;
24064;SDS011;12258;50.940;5.330;2022-08-25T14:08:47;5.38;;;2.33;;
24064;SDS011;12258;50.940;5.330;2022-08-25T14:11:30;11.15;;;3.80;;
24064;SDS011;12258;50.940;5.330;2022-08-25T14:16:52;5.50;;;2.35;;
24064;SDS011;12258;50.940;5.330;2022-08-25T14:19:23;5.38;;;2.50;;
24064;SDS011;12258;50.940;5.330;2022-08-25T14:21:50;4.72;;;2.70;;
24064;SDS011;12258;50.940;5.330;2022-08-25T14:24:18;5.32;;;2.45;;
24064;SDS011;12258;50.940;5.330;2022-08-25T14:26:46;6.85;;;2.33;;
24064;SDS011;12258;50.940;5.330;2022-08-25T14:29:13;9.88;;;2.40;;
24064;SDS011;12258;50.940;5.330;2022-08-25T14:31:41;3.72;;;2.40;;
24064;SDS011;12258;50.940;5.330;2022-08-25T14:34:11;3.85;;;2.50;;
24064;SDS011;12258;50.940;5.330;2022-08-25T14:36:39;4.30;;;2.35;;
24064;SDS011;12258;50.940;5.330;2022-08-25T14:39:06;9.40;;;2.70;;
24064;SDS011;12258;50.940;5.330;2022-08-25T14:41:34;3.03;;;2.20;;
24064;SDS011;12258;50.940;5.330;2022-08-25T14:44:02;7.63;;;2.40;;
24064;SDS011;12258;50.940;5.330;2022-08-25T14:46:33;6.15;;;2.17;;
24064;SDS011;12258;50.940;5.330;2022-08-25T14:49:07;6.45;;;2.25;;
24064;SDS011;12258;50.940;5.330;2022-08-25T14:51:35;3.40;;;2.08;;
24064;SDS011;12258;50.940;5.330;2022-08-25T14:54:04;3.47;;;2.20;;
24064;SDS011;12258;50.940;5.330;2022-08-25T14:56:32;8.15;;;2.20;;
24064;SDS011;12258;50.940;5.330;2022-08-25T14:58:58;5.35;;;2.60;;
24064;SDS011;12258;50.940;5.330;2022-08-25T15:01:24;3.53;;;2.35;;
24064;SDS011;12258;50.940;5.330;2022-08-25T15:03:52;3.95;;;2.13;;
24064;SDS011;12258;50.940;5.330;2022-08-25T15:06:21;9.10;;;2.65;;
24064;SDS011;12258;50.940;5.330;2022-08-25T15:08:47;3.13;;;2.50;;
24064;SDS011;12258;50.940;5.330;2022-08-25T15:11:31;4.35;;;2.22;;
24064;SDS011;12258;50.940;5.330;2022-08-25T15:13:57;3.72;;;2.40;;
24064;SDS011;12258;50.940;5.330;2022-08-25T15:16:30;3.90;;;2.10;;
24064;SDS011;12258;50.940;5.330;2022-08-25T15:19:06;7.97;;;2.45;;
24064;SDS011;12258;50.940;5.330;2022-08-25T15:21:34;6.45;;;3.05;;
24064;SDS011;12258;50.940;5.330;2022-08-25T15:24:01;11.05;;;2.80;;
24064;SDS011;12258;50.940;5.330;2022-08-25T15:26:27;7.80;;;2.75;;
24064;SDS011;12258;50.940;5.330;2022-08-25T15:28:53;5.47;;;2.50;;
24064;SDS011;12258;50.940;5.330;2022-08-25T15:31:19;3.90;;;2.50;;
24064;SDS011;12258;50.940;5.330;2022-08-25T15:33:46;8.45;;;2.50;;
24064;SDS011;12258;50.940;5.330;2022-08-25T15:36:12;4.57;;;2.65;;
24064;SDS011;12258;50.940;5.330;2022-08-25T15:38:41;4.97;;;2.30;;
24064;SDS011;12258;50.940;5.330;2022-08-25T15:41:08;8.88;;;2.13;;
24064;SDS011;12258;50.940;5.330;2022-08-25T15:43:35;6.93;;;3.42;;
24064;SDS011;12258;50.940;5.330;2022-08-25T15:46:02;5.40;;;2.40;;
24064;SDS011;12258;50.940;5.330;2022-08-25T15:48:29;5.15;;;2.47;;
24064;SDS011;12258;50.940;5.330;2022-08-25T15:50:56;7.38;;;2.67;;
24064;SDS011;12258;50.940;5.330;2022-08-25T15:53:24;5.85;;;2.63;;
24064;SDS011;12258;50.940;5.330;2022-08-25T15:55:51;8.23;;;2.20;;
24064;SDS011;12258;50.940;5.330;2022-08-25T15:58:17;7.25;;;2.53;;
24064;SDS011;12258;50.940;5.330;2022-08-25T16:00:43;5.40;;;2.80;;
24064;SDS011;12258;50.940;5.330;2022-08-25T16:03:10;4.32;;;2.45;;
24064;SDS011;12258;50.940;5.330;2022-08-25T16:05:36;9.15;;;2.50;;
24064;SDS011;12258;50.940;5.330;2022-08-25T16:08:04;4.97;;;2.85;;
24064;SDS011;12258;50.940;5.330;2022-08-25T16:10:33;6.20;;;2.70;;
24064;SDS011;12258;50.940;5.330;2022-08-25T16:12:59;5.25;;;2.95;;
24064;SDS011;12258;50.940;5.330;2022-08-25T16:15:26;5.68;;;2.60;;
24064;SDS011;12258;50.940;5.330;2022-08-25T16:17:52;5.68;;;2.97;;
24064;SDS011;12258;50.940;5.330;2022-08-25T16:20:18;7.28;;;2.60;;
24064;SDS011;12258;50.940;5.330;2022-08-25T16:22:45;2.90;;;2.55;;
24064;SDS011;12258;50.940;5.330;2022-08-25T16:25:12;4.45;;;2.50;;
24064;SDS011;12258;50.940;5.330;2022-08-25T16:27:38;2.55;;;2.35;;
24064;SDS011;12258;50.940;5.330;2022-08-25T16:30:03;6.90;;;2.70;;
24064;SDS011;12258;50.940;5.330;2022-08-25T16:32:30;8.35;;;2.50;;
24064;SDS011;12258;50.940;5.330;2022-08-25T16:34:56;3.42;;;2.80;;
24064;SDS011;12258;50.940;5.330;2022-08-25T16:37:22;3.63;;;2.42;;
24064;SDS011;12258;50.940;5.330;2022-08-25T16:39:51;3.38;;;2.70;;
24064;SDS011;12258;50.940;5.330;2022-08-25T16:42:17;7.20;;;3.05;;